sensor_id;sensor_type;location;lat;lon;timestamp;P1;durP1;ratioP1;P2;durP2;ratioP2
47433;SDS011;33184;48.774;8.918;2022-12-18T00:02:51;48.30;;;20.93;;
47433;SDS011;33184;48.774;8.918;2022-12-18T00:08:11;56.40;;;22.10;;
47433;SDS011;33184;48.774;8.918;2022-12-18T00:13:32;51.63;;;22.07;;
47433;SDS011;33184;48.774;8.918;2022-12-18T00:18:53;47.70;;;21.60;;
47433;SDS011;33184;48.774;8.918;2022-12-18T00:24:15;54.40;;;22.70;;
47433;SDS011;33184;48.774;8.918;2022-12-18T00:29:36;47.60;;;21.63;;
47433;SDS011;33184;48.774;8.918;2022-12-18T00:35:00;50.37;;;22.10;;
47433;SDS011;33184;48.774;8.918;2022-12-18T00:40:20;52.33;;;21.37;;
47433;SDS011;33184;48.774;8.918;2022-12-18T00:45:41;46.43;;;22.43;;
47433;SDS011;33184;48.774;8.918;2022-12-18T00:51:02;49.23;;;21.33;;
47433;SDS011;33184;48.774;8.918;2022-12-18T00:56:23;47.57;;;20.20;;
47433;SDS011;33184;48.774;8.918;2022-12-18T01:01:44;42.30;;;20.10;;
47433;SDS011;33184;48.774;8.918;2022-12-18T01:07:05;37.27;;;17.33;;
47433;SDS011;33184;48.774;8.918;2022-12-18T01:12:25;45.87;;;21.63;;
47433;SDS011;33184;48.774;8.918;2022-12-18T01:17:46;39.97;;;19.73;;
47433;SDS011;33184;48.774;8.918;2022-12-18T01:23:06;44.93;;;20.53;;
47433;SDS011;33184;48.774;8.918;2022-12-18T01:28:27;46.70;;;20.83;;
47433;SDS011;33184;48.774;8.918;2022-12-18T01:33:49;40.47;;;20.00;;
47433;SDS011;33184;48.774;8.918;2022-12-18T01:39:12;44.57;;;19.07;;
47433;SDS011;33184;48.774;8.918;2022-12-18T01:55:46;31.65;;;15.57;;
47433;SDS011;33184;48.774;8.918;2022-12-18T02:01:12;46.30;;;19.43;;
47433;SDS011;33184;48.774;8.918;2022-12-18T02:06:33;39.23;;;18.57;;
47433;SDS011;33184;48.774;8.918;2022-12-18T02:12:05;48.13;;;17.70;;
47433;SDS011;33184;48.774;8.918;2022-12-18T02:23:24;42.97;;;18.50;;
47433;SDS011;33184;48.774;8.918;2022-12-18T02:29:24;41.87;;;18.67;;
47433;SDS011;33184;48.774;8.918;2022-12-18T02:34:48;40.67;;;19.30;;
47433;SDS011;33184;48.774;8.918;2022-12-18T02:40:11;45.28;;;19.83;;
47433;SDS011;33184;48.774;8.918;2022-12-18T02:45:34;37.93;;;16.33;;
47433;SDS011;33184;48.774;8.918;2022-12-18T02:51:03;37.60;;;18.10;;
47433;SDS011;33184;48.774;8.918;2022-12-18T02:56:45;43.47;;;18.80;;
47433;SDS011;33184;48.774;8.918;2022-12-18T03:02:17;42.80;;;18.47;;
47433;SDS011;33184;48.774;8.918;2022-12-18T03:19:16;42.97;;;17.53;;
47433;SDS011;33184;48.774;8.918;2022-12-18T03:24:44;48.63;;;16.40;;
47433;SDS011;33184;48.774;8.918;2022-12-18T03:30:10;40.60;;;16.23;;
47433;SDS011;33184;48.774;8.918;2022-12-18T03:35:40;39.37;;;17.53;;
47433;SDS011;33184;48.774;8.918;2022-12-18T03:41:15;34.80;;;15.20;;
47433;SDS011;33184;48.774;8.918;2022-12-18T03:47:16;29.50;;;14.27;;
47433;SDS011;33184;48.774;8.918;2022-12-18T03:53:01;34.60;;;14.53;;
47433;SDS011;33184;48.774;8.918;2022-12-18T03:58:27;33.63;;;13.50;;
47433;SDS011;33184;48.774;8.918;2022-12-18T04:04:05;38.53;;;14.83;;
47433;SDS011;33184;48.774;8.918;2022-12-18T04:09:31;32.93;;;13.73;;
47433;SDS011;33184;48.774;8.918;2022-12-18T04:14:54;35.63;;;12.70;;
47433;SDS011;33184;48.774;8.918;2022-12-18T04:20:16;32.93;;;13.53;;
47433;SDS011;33184;48.774;8.918;2022-12-18T04:25:38;36.90;;;15.67;;
47433;SDS011;33184;48.774;8.918;2022-12-18T04:31:03;28.97;;;11.87;;
47433;SDS011;33184;48.774;8.918;2022-12-18T04:36:23;42.87;;;15.73;;
47433;SDS011;33184;48.774;8.918;2022-12-18T04:41:48;42.83;;;13.90;;
47433;SDS011;33184;48.774;8.918;2022-12-18T04:47:09;34.73;;;14.03;;
47433;SDS011;33184;48.774;8.918;2022-12-18T04:52:29;38.10;;;14.53;;
47433;SDS011;33184;48.774;8.918;2022-12-18T04:57:52;48.90;;;15.77;;
47433;SDS011;33184;48.774;8.918;2022-12-18T05:03:13;36.87;;;12.90;;
47433;SDS011;33184;48.774;8.918;2022-12-18T05:08:33;34.60;;;15.37;;
47433;SDS011;33184;48.774;8.918;2022-12-18T05:13:54;29.17;;;11.97;;
47433;SDS011;33184;48.774;8.918;2022-12-18T05:19:18;33.13;;;13.83;;
47433;SDS011;33184;48.774;8.918;2022-12-18T05:24:38;34.20;;;14.63;;
47433;SDS011;33184;48.774;8.918;2022-12-18T05:29:59;36.97;;;14.93;;
47433;SDS011;33184;48.774;8.918;2022-12-18T05:35:19;52.03;;;18.27;;
47433;SDS011;33184;48.774;8.918;2022-12-18T05:40:41;49.23;;;16.50;;
47433;SDS011;33184;48.774;8.918;2022-12-18T05:46:07;45.28;;;15.10;;
47433;SDS011;33184;48.774;8.918;2022-12-18T05:51:31;44.73;;;15.13;;
47433;SDS011;33184;48.774;8.918;2022-12-18T05:56:51;41.23;;;15.27;;
47433;SDS011;33184;48.774;8.918;2022-12-18T06:02:12;35.30;;;12.37;;
47433;SDS011;33184;48.774;8.918;2022-12-18T06:07:32;47.73;;;15.87;;
47433;SDS011;33184;48.774;8.918;2022-12-18T06:12:53;44.20;;;14.83;;
47433;SDS011;33184;48.774;8.918;2022-12-18T06:18:13;49.67;;;16.20;;
47433;SDS011;33184;48.774;8.918;2022-12-18T06:23:35;53.70;;;19.20;;
47433;SDS011;33184;48.774;8.918;2022-12-18T06:28:56;48.43;;;14.63;;
47433;SDS011;33184;48.774;8.918;2022-12-18T06:34:16;44.20;;;15.60;;
47433;SDS011;33184;48.774;8.918;2022-12-18T06:39:37;51.37;;;16.40;;
47433;SDS011;33184;48.774;8.918;2022-12-18T06:44:57;42.50;;;15.73;;
47433;SDS011;33184;48.774;8.918;2022-12-18T06:50:18;48.93;;;16.07;;
47433;SDS011;33184;48.774;8.918;2022-12-18T06:55:38;39.93;;;16.63;;
47433;SDS011;33184;48.774;8.918;2022-12-18T07:01:00;45.37;;;15.83;;
47433;SDS011;33184;48.774;8.918;2022-12-18T07:06:22;31.80;;;14.60;;
47433;SDS011;33184;48.774;8.918;2022-12-18T07:11:44;42.60;;;13.93;;
47433;SDS011;33184;48.774;8.918;2022-12-18T07:17:04;54.43;;;16.43;;
47433;SDS011;33184;48.774;8.918;2022-12-18T07:22:25;41.50;;;13.70;;
47433;SDS011;33184;48.774;8.918;2022-12-18T07:27:46;42.40;;;15.83;;
47433;SDS011;33184;48.774;8.918;2022-12-18T07:33:06;42.27;;;13.73;;
47433;SDS011;33184;48.774;8.918;2022-12-18T07:38:27;34.73;;;16.17;;
47433;SDS011;33184;48.774;8.918;2022-12-18T07:43:47;45.13;;;15.07;;
47433;SDS011;33184;48.774;8.918;2022-12-18T07:49:08;40.53;;;15.10;;
47433;SDS011;33184;48.774;8.918;2022-12-18T07:54:29;33.03;;;12.27;;
47433;SDS011;33184;48.774;8.918;2022-12-18T07:59:49;38.27;;;16.20;;
47433;SDS011;33184;48.774;8.918;2022-12-18T08:05:10;39.13;;;17.07;;
47433;SDS011;33184;48.774;8.918;2022-12-18T08:10:30;43.37;;;16.87;;
47433;SDS011;33184;48.774;8.918;2022-12-18T08:16:01;35.77;;;14.30;;
47433;SDS011;33184;48.774;8.918;2022-12-18T08:21:28;40.83;;;15.93;;
47433;SDS011;33184;48.774;8.918;2022-12-18T08:26:50;45.43;;;16.63;;
47433;SDS011;33184;48.774;8.918;2022-12-18T08:32:11;45.57;;;16.27;;
47433;SDS011;33184;48.774;8.918;2022-12-18T08:37:32;43.53;;;16.67;;
47433;SDS011;33184;48.774;8.918;2022-12-18T08:42:52;41.77;;;15.63;;
47433;SDS011;33184;48.774;8.918;2022-12-18T08:48:31;41.80;;;18.17;;
47433;SDS011;33184;48.774;8.918;2022-12-18T08:53:52;41.97;;;18.53;;
47433;SDS011;33184;48.774;8.918;2022-12-18T08:59:12;43.83;;;17.47;;
47433;SDS011;33184;48.774;8.918;2022-12-18T09:04:33;48.93;;;19.23;;
47433;SDS011;33184;48.774;8.918;2022-12-18T09:09:53;40.17;;;16.00;;
47433;SDS011;33184;48.774;8.918;2022-12-18T09:15:14;39.73;;;16.67;;
47433;SDS011;33184;48.774;8.918;2022-12-18T09:20:36;33.77;;;15.33;;
47433;SDS011;33184;48.774;8.918;2022-12-18T09:26:00;36.90;;;15.50;;
47433;SDS011;33184;48.774;8.918;2022-12-18T09:31:21;33.53;;;15.10;;
47433;SDS011;33184;48.774;8.918;2022-12-18T09:36:42;41.37;;;15.07;;
47433;SDS011;33184;48.774;8.918;2022-12-18T09:42:03;40.03;;;15.43;;
47433;SDS011;33184;48.774;8.918;2022-12-18T09:47:28;38.37;;;15.37;;
47433;SDS011;33184;48.774;8.918;2022-12-18T09:52:54;37.53;;;14.97;;
47433;SDS011;33184;48.774;8.918;2022-12-18T10:03:57;38.67;;;19.03;;
47433;SDS011;33184;48.774;8.918;2022-12-18T10:09:21;36.67;;;15.37;;
47433;SDS011;33184;48.774;8.918;2022-12-18T10:20:52;37.23;;;16.23;;
47433;SDS011;33184;48.774;8.918;2022-12-18T10:26:16;33.37;;;13.97;;
47433;SDS011;33184;48.774;8.918;2022-12-18T10:31:38;36.20;;;15.90;;
47433;SDS011;33184;48.774;8.918;2022-12-18T10:37:00;37.10;;;14.90;;
47433;SDS011;33184;48.774;8.918;2022-12-18T10:42:21;28.70;;;14.10;;
47433;SDS011;33184;48.774;8.918;2022-12-18T10:47:43;41.70;;;15.83;;
47433;SDS011;33184;48.774;8.918;2022-12-18T10:53:06;31.77;;;16.17;;
47433;SDS011;33184;48.774;8.918;2022-12-18T10:58:37;36.73;;;16.60;;
47433;SDS011;33184;48.774;8.918;2022-12-18T11:04:00;34.77;;;15.30;;
47433;SDS011;33184;48.774;8.918;2022-12-18T11:14:52;36.80;;;19.10;;
47433;SDS011;33184;48.774;8.918;2022-12-18T11:20:23;42.00;;;18.63;;
47433;SDS011;33184;48.774;8.918;2022-12-18T11:25:52;34.10;;;17.43;;
47433;SDS011;33184;48.774;8.918;2022-12-18T11:31:26;37.33;;;18.57;;
47433;SDS011;33184;48.774;8.918;2022-12-18T11:36:48;33.37;;;17.07;;
47433;SDS011;33184;48.774;8.918;2022-12-18T11:42:25;35.80;;;18.17;;
47433;SDS011;33184;48.774;8.918;2022-12-18T11:54:11;41.00;;;19.93;;
47433;SDS011;33184;48.774;8.918;2022-12-18T12:10:52;35.37;;;18.07;;
47433;SDS011;33184;48.774;8.918;2022-12-18T12:16:34;33.40;;;16.97;;
47433;SDS011;33184;48.774;8.918;2022-12-18T12:44:07;38.30;;;18.70;;
47433;SDS011;33184;48.774;8.918;2022-12-18T12:49:34;37.33;;;17.83;;
47433;SDS011;33184;48.774;8.918;2022-12-18T12:54:54;30.27;;;16.67;;
47433;SDS011;33184;48.774;8.918;2022-12-18T13:00:17;36.77;;;16.90;;
47433;SDS011;33184;48.774;8.918;2022-12-18T13:05:46;32.60;;;15.90;;
47433;SDS011;33184;48.774;8.918;2022-12-18T13:11:27;32.27;;;16.63;;
47433;SDS011;33184;48.774;8.918;2022-12-18T13:17:16;34.70;;;15.93;;
47433;SDS011;33184;48.774;8.918;2022-12-18T13:22:49;38.00;;;17.67;;
47433;SDS011;33184;48.774;8.918;2022-12-18T13:28:12;31.33;;;17.07;;
47433;SDS011;33184;48.774;8.918;2022-12-18T13:33:37;40.83;;;19.13;;
47433;SDS011;33184;48.774;8.918;2022-12-18T13:44:38;38.23;;;19.43;;
47433;SDS011;33184;48.774;8.918;2022-12-18T13:50:12;40.30;;;18.93;;
47433;SDS011;33184;48.774;8.918;2022-12-18T13:55:45;37.83;;;18.23;;
47433;SDS011;33184;48.774;8.918;2022-12-18T14:01:15;41.03;;;20.00;;
47433;SDS011;33184;48.774;8.918;2022-12-18T14:06:42;35.63;;;16.37;;
47433;SDS011;33184;48.774;8.918;2022-12-18T14:12:05;32.40;;;16.00;;
47433;SDS011;33184;48.774;8.918;2022-12-18T14:18:36;34.60;;;16.93;;
47433;SDS011;33184;48.774;8.918;2022-12-18T14:23:40;34.63;;;16.67;;
47433;SDS011;33184;48.774;8.918;2022-12-18T14:35:12;35.97;;;18.37;;
47433;SDS011;33184;48.774;8.918;2022-12-18T14:40:33;38.07;;;16.60;;
47433;SDS011;33184;48.774;8.918;2022-12-18T14:45:54;36.80;;;16.87;;
47433;SDS011;33184;48.774;8.918;2022-12-18T14:51:17;38.43;;;18.67;;
47433;SDS011;33184;48.774;8.918;2022-12-18T14:56:44;33.27;;;15.37;;
47433;SDS011;33184;48.774;8.918;2022-12-18T15:07:53;38.93;;;18.60;;
47433;SDS011;33184;48.774;8.918;2022-12-18T15:13:23;40.47;;;18.30;;
47433;SDS011;33184;48.774;8.918;2022-12-18T15:18:44;47.47;;;23.20;;
47433;SDS011;33184;48.774;8.918;2022-12-18T15:24:13;50.93;;;26.10;;
47433;SDS011;33184;48.774;8.918;2022-12-18T15:29:43;42.03;;;20.37;;
47433;SDS011;33184;48.774;8.918;2022-12-18T15:36:12;42.87;;;22.07;;
47433;SDS011;33184;48.774;8.918;2022-12-18T15:42:04;39.87;;;19.83;;
47433;SDS011;33184;48.774;8.918;2022-12-18T15:47:43;40.53;;;19.90;;
47433;SDS011;33184;48.774;8.918;2022-12-18T15:53:04;40.30;;;17.87;;
47433;SDS011;33184;48.774;8.918;2022-12-18T15:58:24;43.30;;;20.27;;
47433;SDS011;33184;48.774;8.918;2022-12-18T16:03:45;40.87;;;19.63;;
47433;SDS011;33184;48.774;8.918;2022-12-18T16:09:05;49.77;;;22.67;;
47433;SDS011;33184;48.774;8.918;2022-12-18T16:14:26;40.87;;;19.97;;
47433;SDS011;33184;48.774;8.918;2022-12-18T16:19:51;38.37;;;18.50;;
47433;SDS011;33184;48.774;8.918;2022-12-18T16:25:21;46.07;;;21.97;;
47433;SDS011;33184;48.774;8.918;2022-12-18T16:30:46;44.72;;;21.27;;
47433;SDS011;33184;48.774;8.918;2022-12-18T16:36:07;51.93;;;25.27;;
47433;SDS011;33184;48.774;8.918;2022-12-18T16:41:28;50.23;;;24.13;;
47433;SDS011;33184;48.774;8.918;2022-12-18T16:46:51;48.67;;;21.57;;
47433;SDS011;33184;48.774;8.918;2022-12-18T16:52:12;44.23;;;20.60;;
47433;SDS011;33184;48.774;8.918;2022-12-18T16:57:33;41.73;;;20.33;;
47433;SDS011;33184;48.774;8.918;2022-12-18T17:02:53;40.80;;;19.97;;
47433;SDS011;33184;48.774;8.918;2022-12-18T17:08:14;41.67;;;20.93;;
47433;SDS011;33184;48.774;8.918;2022-12-18T17:13:35;47.23;;;22.27;;
47433;SDS011;33184;48.774;8.918;2022-12-18T17:18:55;42.37;;;18.93;;
47433;SDS011;33184;48.774;8.918;2022-12-18T17:24:16;44.20;;;21.37;;
47433;SDS011;33184;48.774;8.918;2022-12-18T17:29:37;40.83;;;18.83;;
47433;SDS011;33184;48.774;8.918;2022-12-18T17:34:58;44.90;;;20.73;;
47433;SDS011;33184;48.774;8.918;2022-12-18T17:40:18;52.00;;;23.33;;
47433;SDS011;33184;48.774;8.918;2022-12-18T17:45:39;46.47;;;21.23;;
47433;SDS011;33184;48.774;8.918;2022-12-18T17:51:04;43.47;;;21.63;;
47433;SDS011;33184;48.774;8.918;2022-12-18T17:56:26;44.87;;;20.37;;
47433;SDS011;33184;48.774;8.918;2022-12-18T18:01:47;42.47;;;21.07;;
47433;SDS011;33184;48.774;8.918;2022-12-18T18:07:08;42.90;;;23.13;;
47433;SDS011;33184;48.774;8.918;2022-12-18T18:12:29;45.93;;;24.10;;
47433;SDS011;33184;48.774;8.918;2022-12-18T18:18:08;49.77;;;23.60;;
47433;SDS011;33184;48.774;8.918;2022-12-18T18:23:28;50.80;;;23.33;;
47433;SDS011;33184;48.774;8.918;2022-12-18T18:28:52;52.33;;;26.13;;
47433;SDS011;33184;48.774;8.918;2022-12-18T18:34:14;46.70;;;22.23;;
47433;SDS011;33184;48.774;8.918;2022-12-18T18:39:36;50.90;;;23.33;;
47433;SDS011;33184;48.774;8.918;2022-12-18T18:44:56;44.90;;;22.03;;
47433;SDS011;33184;48.774;8.918;2022-12-18T18:50:17;67.63;;;30.60;;
47433;SDS011;33184;48.774;8.918;2022-12-18T18:55:37;57.37;;;28.17;;
47433;SDS011;33184;48.774;8.918;2022-12-18T19:00:59;61.03;;;29.90;;
47433;SDS011;33184;48.774;8.918;2022-12-18T19:06:22;49.90;;;24.10;;
47433;SDS011;33184;48.774;8.918;2022-12-18T19:11:45;53.25;;;25.10;;
47433;SDS011;33184;48.774;8.918;2022-12-18T19:17:24;54.40;;;24.93;;
47433;SDS011;33184;48.774;8.918;2022-12-18T19:22:45;55.03;;;26.57;;
47433;SDS011;33184;48.774;8.918;2022-12-18T19:28:05;56.93;;;25.03;;
47433;SDS011;33184;48.774;8.918;2022-12-18T19:33:27;46.53;;;24.57;;
47433;SDS011;33184;48.774;8.918;2022-12-18T19:38:49;52.93;;;24.80;;
47433;SDS011;33184;48.774;8.918;2022-12-18T19:44:12;58.13;;;27.60;;
47433;SDS011;33184;48.774;8.918;2022-12-18T19:49:34;49.60;;;25.30;;
47433;SDS011;33184;48.774;8.918;2022-12-18T19:54:56;57.90;;;24.67;;
47433;SDS011;33184;48.774;8.918;2022-12-18T20:00:16;49.33;;;25.23;;
47433;SDS011;33184;48.774;8.918;2022-12-18T20:05:37;58.83;;;26.23;;
47433;SDS011;33184;48.774;8.918;2022-12-18T20:10:58;55.77;;;25.50;;
47433;SDS011;33184;48.774;8.918;2022-12-18T20:16:18;50.77;;;24.47;;
47433;SDS011;33184;48.774;8.918;2022-12-18T20:21:39;54.07;;;25.40;;
47433;SDS011;33184;48.774;8.918;2022-12-18T20:27:00;53.77;;;24.43;;
47433;SDS011;33184;48.774;8.918;2022-12-18T20:32:21;53.40;;;26.67;;
47433;SDS011;33184;48.774;8.918;2022-12-18T20:37:42;52.70;;;26.37;;
47433;SDS011;33184;48.774;8.918;2022-12-18T20:43:02;51.90;;;24.93;;
47433;SDS011;33184;48.774;8.918;2022-12-18T20:48:23;55.43;;;25.67;;
47433;SDS011;33184;48.774;8.918;2022-12-18T20:53:44;55.30;;;24.30;;
47433;SDS011;33184;48.774;8.918;2022-12-18T20:59:05;55.70;;;27.90;;
47433;SDS011;33184;48.774;8.918;2022-12-18T21:04:26;52.70;;;25.83;;
47433;SDS011;33184;48.774;8.918;2022-12-18T21:09:47;56.17;;;25.43;;
47433;SDS011;33184;48.774;8.918;2022-12-18T21:15:08;52.33;;;23.37;;
47433;SDS011;33184;48.774;8.918;2022-12-18T21:20:29;49.33;;;24.97;;
47433;SDS011;33184;48.774;8.918;2022-12-18T21:25:49;50.27;;;24.30;;
47433;SDS011;33184;48.774;8.918;2022-12-18T21:31:10;52.60;;;24.63;;
47433;SDS011;33184;48.774;8.918;2022-12-18T21:36:31;53.70;;;26.13;;
47433;SDS011;33184;48.774;8.918;2022-12-18T21:41:52;53.07;;;25.37;;
47433;SDS011;33184;48.774;8.918;2022-12-18T21:47:32;51.13;;;24.80;;
47433;SDS011;33184;48.774;8.918;2022-12-18T21:52:53;51.20;;;24.13;;
47433;SDS011;33184;48.774;8.918;2022-12-18T21:58:14;53.90;;;26.67;;
47433;SDS011;33184;48.774;8.918;2022-12-18T22:03:34;46.67;;;24.47;;
47433;SDS011;33184;48.774;8.918;2022-12-18T22:08:55;53.77;;;26.37;;
47433;SDS011;33184;48.774;8.918;2022-12-18T22:14:15;52.10;;;26.23;;
47433;SDS011;33184;48.774;8.918;2022-12-18T22:19:38;49.07;;;25.03;;
47433;SDS011;33184;48.774;8.918;2022-12-18T22:24:59;52.93;;;26.00;;
47433;SDS011;33184;48.774;8.918;2022-12-18T22:30:19;53.53;;;28.97;;
47433;SDS011;33184;48.774;8.918;2022-12-18T22:35:40;52.23;;;26.60;;
47433;SDS011;33184;48.774;8.918;2022-12-18T22:41:01;56.37;;;25.77;;
47433;SDS011;33184;48.774;8.918;2022-12-18T22:46:21;54.43;;;25.37;;
47433;SDS011;33184;48.774;8.918;2022-12-18T22:51:44;50.83;;;24.47;;
47433;SDS011;33184;48.774;8.918;2022-12-18T22:57:05;46.47;;;23.17;;
47433;SDS011;33184;48.774;8.918;2022-12-18T23:02:25;50.60;;;24.93;;
47433;SDS011;33184;48.774;8.918;2022-12-18T23:07:46;53.87;;;24.20;;
47433;SDS011;33184;48.774;8.918;2022-12-18T23:13:07;48.73;;;25.70;;
47433;SDS011;33184;48.774;8.918;2022-12-18T23:18:27;48.93;;;23.20;;
47433;SDS011;33184;48.774;8.918;2022-12-18T23:23:51;49.70;;;24.47;;
47433;SDS011;33184;48.774;8.918;2022-12-18T23:29:29;49.03;;;22.87;;
47433;SDS011;33184;48.774;8.918;2022-12-18T23:34:55;48.87;;;22.00;;
47433;SDS011;33184;48.774;8.918;2022-12-18T23:40:16;59.13;;;25.80;;
47433;SDS011;33184;48.774;8.918;2022-12-18T23:45:37;50.80;;;23.40;;
47433;SDS011;33184;48.774;8.918;2022-12-18T23:51:02;42.77;;;22.13;;
47433;SDS011;33184;48.774;8.918;2022-12-18T23:56:27;49.63;;;25.03;;
